createdAt,value
2023-05-15T00:01:13.644Z,16.14
2023-05-15T00:03:45.503Z,16.20
2023-05-15T00:06:20.193Z,16.19
2023-05-15T00:08:51.904Z,16.22
2023-05-15T00:11:23.647Z,16.13
2023-05-15T00:13:55.458Z,16.16
2023-05-15T00:16:27.083Z,15.93
2023-05-15T00:18:58.830Z,15.92
2023-05-15T00:21:31.080Z,15.89
2023-05-15T00:24:02.772Z,15.88
2023-05-15T00:26:34.566Z,15.80
2023-05-15T00:29:06.126Z,15.74
2023-05-15T00:31:37.791Z,15.79
2023-05-15T00:34:09.438Z,15.77
2023-05-15T00:36:41.093Z,15.73
2023-05-15T00:39:12.839Z,15.71
2023-05-15T00:41:46.429Z,15.66
2023-05-15T00:44:20.332Z,15.78
2023-05-15T00:46:53.185Z,15.91
2023-05-15T00:49:27.689Z,16.05
2023-05-15T00:52:02.071Z,16.22
2023-05-15T00:54:33.852Z,16.56
2023-05-15T00:57:06.536Z,16.60
2023-05-15T00:59:40.329Z,16.72
2023-05-15T01:02:15.958Z,16.81
2023-05-15T01:04:47.646Z,16.89
2023-05-15T01:07:19.266Z,16.93
2023-05-15T01:09:52.802Z,16.94
2023-05-15T01:12:27.030Z,17.01
2023-05-15T01:14:58.856Z,17.00
2023-05-15T01:17:31.302Z,16.88
2023-05-15T01:20:09.421Z,17.02
2023-05-15T01:23:12.396Z,16.96
2023-05-15T01:26:13.317Z,17.04
2023-05-15T01:28:57.407Z,17.05
2023-05-15T01:31:32.805Z,16.92
2023-05-15T01:34:09.426Z,17.02
2023-05-15T01:36:51.461Z,16.95
2023-05-15T01:39:27.821Z,16.78
2023-05-15T01:42:08.030Z,16.79
2023-05-15T01:44:56.789Z,16.69
2023-05-15T01:47:44.027Z,16.41
2023-05-15T01:50:20.163Z,16.45
2023-05-15T01:52:56.609Z,16.60
2023-05-15T01:55:30.488Z,16.45
2023-05-15T01:58:04.343Z,16.47
2023-05-15T02:00:36.653Z,16.38
2023-05-15T02:03:08.793Z,16.27
2023-05-15T02:05:41.886Z,16.23
2023-05-15T02:08:14.005Z,16.11
2023-05-15T02:10:46.439Z,15.93
2023-05-15T02:13:18.527Z,15.84
2023-05-15T02:15:50.142Z,15.75
2023-05-15T02:18:22.213Z,15.85
2023-05-15T02:20:56.896Z,15.95
2023-05-15T02:23:28.921Z,15.97
2023-05-15T02:26:21.619Z,15.97
2023-05-15T02:28:59.229Z,15.75
2023-05-15T02:31:45.432Z,15.73
2023-05-15T02:34:39.448Z,15.56
2023-05-15T02:37:18.276Z,15.61
2023-05-15T02:39:54.429Z,15.69
2023-05-15T02:42:31.220Z,15.78
2023-05-15T02:45:08.130Z,15.93
2023-05-15T02:47:41.005Z,15.97
2023-05-15T02:50:12.748Z,15.93
2023-05-15T02:52:44.446Z,15.51
2023-05-15T02:55:16.238Z,15.73
2023-05-15T02:57:50.002Z,15.63
2023-05-15T03:00:22.482Z,15.62
2023-05-15T03:02:54.106Z,15.36
2023-05-15T03:05:27.027Z,15.50
2023-05-15T03:08:00.598Z,15.33
2023-05-15T03:10:32.179Z,15.50
2023-05-15T03:13:03.828Z,15.62
2023-05-15T03:15:35.422Z,15.63
2023-05-15T03:18:07.044Z,15.60
2023-05-15T03:20:38.678Z,15.53
2023-05-15T03:23:10.308Z,15.34
2023-05-15T03:25:41.857Z,15.63
2023-05-15T03:28:13.527Z,15.72
2023-05-15T03:30:45.514Z,15.75
2023-05-15T03:33:17.125Z,15.74
2023-05-15T03:35:48.816Z,15.72
2023-05-15T03:38:20.452Z,15.82
2023-05-15T03:40:52.234Z,15.96
2023-05-15T03:43:24.164Z,15.99
2023-05-15T03:45:55.892Z,16.17
2023-05-15T03:48:27.552Z,16.27
2023-05-15T03:50:59.317Z,16.30
2023-05-15T03:53:30.950Z,16.39
2023-05-15T03:56:03.556Z,16.57
2023-05-15T03:58:35.090Z,16.62
2023-05-15T04:01:08.112Z,16.47
2023-05-15T04:03:39.762Z,16.36
2023-05-15T04:06:14.430Z,16.38
2023-05-15T04:08:46.021Z,16.39
2023-05-15T04:11:19.983Z,16.41
2023-05-15T04:13:51.571Z,16.57
2023-05-15T04:16:23.281Z,16.64
2023-05-15T04:18:54.888Z,16.71
2023-05-15T04:21:26.436Z,16.73
2023-05-15T04:23:58.102Z,16.90
2023-05-15T04:26:29.861Z,16.98
2023-05-15T04:29:04.480Z,16.96
2023-05-15T04:31:36.643Z,16.93
2023-05-15T04:34:08.211Z,17.03
2023-05-15T04:36:40.841Z,17.13
2023-05-15T04:39:14.438Z,17.00
2023-05-15T04:41:46.582Z,17.23
2023-05-15T04:44:18.168Z,17.32
2023-05-15T04:46:52.416Z,17.21
2023-05-15T04:49:24.096Z,17.30
2023-05-15T04:51:55.672Z,17.27
2023-05-15T04:54:29.803Z,17.49
2023-05-15T04:57:01.625Z,17.29
2023-05-15T04:59:33.480Z,17.36
2023-05-15T05:02:05.264Z,17.34
2023-05-15T05:04:36.885Z,17.29
2023-05-15T05:07:08.448Z,17.37
2023-05-15T05:09:40.601Z,17.18
2023-05-15T05:12:15.296Z,17.36
2023-05-15T05:14:49.801Z,17.44
2023-05-15T05:17:21.370Z,17.41
2023-05-15T05:19:52.953Z,17.36
2023-05-15T05:22:24.604Z,17.44
2023-05-15T05:24:56.292Z,17.49
2023-05-15T05:27:27.941Z,17.46
2023-05-15T05:30:00.500Z,17.72
2023-05-15T05:32:32.095Z,17.83
2023-05-15T05:35:04.236Z,17.88
2023-05-15T05:37:36.647Z,17.87
2023-05-15T05:40:10.774Z,17.76
2023-05-15T05:42:42.477Z,18.06
2023-05-15T05:45:17.044Z,18.43
2023-05-15T05:47:48.692Z,18.27
2023-05-15T05:50:20.467Z,18.11
2023-05-15T05:52:52.062Z,18.22
2023-05-15T05:55:23.865Z,18.37
2023-05-15T05:57:55.784Z,18.24
2023-05-15T06:00:27.604Z,18.40
2023-05-15T06:03:00.101Z,18.59
2023-05-15T06:05:31.997Z,18.61
2023-05-15T06:08:04.395Z,18.35
2023-05-15T06:10:38.421Z,18.32
2023-05-15T06:13:10.054Z,18.33
2023-05-15T06:15:42.494Z,18.55
2023-05-15T06:18:14.618Z,18.72
2023-05-15T06:20:49.412Z,18.27
2023-05-15T06:23:23.655Z,18.55
2023-05-15T06:25:56.018Z,18.29
2023-05-15T06:28:28.140Z,18.48
2023-05-15T06:30:59.851Z,18.68
2023-05-15T06:33:31.580Z,18.84
2023-05-15T06:36:03.267Z,18.57
2023-05-15T06:38:35.040Z,18.54
2023-05-15T06:41:06.655Z,19.08
2023-05-15T06:43:38.548Z,19.29
2023-05-15T06:46:10.313Z,19.39
2023-05-15T06:48:41.897Z,18.80
2023-05-15T06:51:13.840Z,18.77
2023-05-15T06:53:45.447Z,18.92
2023-05-15T06:56:16.994Z,18.91
2023-05-15T06:58:48.576Z,18.27
2023-05-15T07:01:20.193Z,18.15
2023-05-15T07:03:54.592Z,18.32
2023-05-15T07:06:26.567Z,18.48
2023-05-15T07:09:01.619Z,18.74
2023-05-15T07:11:37.385Z,18.48
2023-05-15T07:14:09.004Z,18.75
2023-05-15T07:16:40.974Z,19.06
2023-05-15T07:19:12.806Z,18.50
2023-05-15T07:21:44.453Z,18.46
2023-05-15T07:24:16.055Z,18.89
2023-05-15T07:26:58.167Z,18.76
2023-05-15T07:29:30.999Z,18.73
2023-05-15T07:32:02.748Z,18.72
2023-05-15T07:34:34.472Z,18.47
2023-05-15T07:37:06.076Z,18.66
2023-05-15T07:39:38.946Z,18.76
2023-05-15T07:42:10.862Z,18.00
2023-05-15T07:44:44.610Z,18.49
2023-05-15T07:47:17.735Z,19.27
2023-05-15T07:49:49.357Z,19.40
2023-05-15T07:52:20.968Z,19.90
2023-05-15T07:54:52.591Z,19.17
2023-05-15T07:57:25.558Z,18.67
2023-05-15T07:59:57.302Z,19.38
2023-05-15T08:02:28.945Z,18.20
2023-05-15T08:05:00.690Z,18.91
2023-05-15T08:07:33.787Z,18.04
2023-05-15T08:10:07.066Z,18.73
2023-05-15T08:12:38.637Z,18.68
2023-05-15T08:15:10.713Z,18.07
2023-05-15T08:17:42.653Z,18.08
2023-05-15T08:20:14.477Z,18.00
2023-05-15T08:22:46.074Z,18.08
2023-05-15T08:25:17.790Z,17.30
2023-05-15T08:27:49.369Z,17.80
2023-05-15T08:30:21.437Z,18.05
2023-05-15T08:32:53.146Z,17.96
2023-05-15T08:35:25.087Z,17.73
2023-05-15T08:37:58.564Z,18.28
2023-05-15T08:40:39.021Z,18.09
2023-05-15T08:43:18.003Z,17.94
2023-05-15T08:45:50.151Z,17.71
2023-05-15T08:48:26.022Z,18.36
2023-05-15T08:50:59.676Z,18.11
2023-05-15T08:53:31.813Z,17.69
2023-05-15T08:56:06.489Z,17.62
2023-05-15T08:58:38.449Z,17.96
2023-05-15T09:01:13.206Z,17.98
2023-05-15T09:03:45.285Z,17.86
2023-05-15T09:06:18.306Z,17.68
2023-05-15T09:08:50.805Z,17.67
2023-05-15T09:11:25.444Z,18.12
2023-05-15T09:14:00.966Z,18.47
2023-05-15T09:16:32.596Z,18.60
2023-05-15T09:19:13.653Z,18.41
2023-05-15T09:21:45.243Z,18.11
2023-05-15T09:24:25.344Z,18.20
2023-05-15T09:27:08.849Z,18.14
2023-05-15T09:29:40.729Z,18.18
2023-05-15T09:32:15.324Z,18.34
2023-05-15T09:34:47.063Z,18.83
2023-05-15T09:37:31.431Z,19.11
2023-05-15T09:40:11.783Z,19.27
2023-05-15T09:42:52.103Z,19.07
2023-05-15T09:45:26.876Z,19.33
2023-05-15T09:48:07.013Z,19.19
2023-05-15T09:50:41.083Z,19.19
2023-05-15T09:53:14.020Z,19.99
2023-05-15T09:55:47.747Z,19.42
2023-05-15T09:58:19.817Z,20.75
2023-05-15T10:00:51.457Z,21.38
2023-05-15T10:03:23.524Z,21.17
2023-05-15T10:06:04.868Z,18.82
2023-05-15T10:08:37.295Z,20.33
2023-05-15T10:11:09.100Z,21.59
2023-05-15T10:13:40.910Z,22.14
2023-05-15T10:16:14.667Z,22.89
2023-05-15T10:18:47.395Z,22.40
2023-05-15T10:21:20.801Z,21.96
2023-05-15T10:24:02.057Z,22.54
2023-05-15T10:26:42.899Z,22.98
2023-05-15T10:29:18.416Z,21.42
2023-05-15T10:31:52.100Z,23.80
2023-05-15T10:34:25.175Z,22.59
2023-05-15T10:36:57.346Z,22.65
2023-05-15T10:39:29.716Z,21.00
2023-05-15T10:42:02.326Z,24.07
2023-05-15T10:44:36.031Z,24.57
2023-05-15T10:47:08.683Z,23.26
2023-05-15T10:49:40.377Z,23.78
2023-05-15T10:52:12.060Z,23.81
2023-05-15T10:54:43.706Z,23.00
2023-05-15T10:57:15.710Z,21.01
2023-05-15T10:59:50.756Z,20.83
2023-05-15T11:02:29.796Z,21.73
2023-05-15T11:05:04.067Z,21.39
2023-05-15T11:07:35.647Z,22.57
2023-05-15T11:10:28.698Z,24.04
2023-05-15T11:13:02.728Z,24.48
2023-05-15T11:15:45.998Z,25.06
2023-05-15T11:18:18.092Z,22.73
2023-05-15T11:20:49.699Z,21.69
2023-05-15T11:23:25.566Z,21.48
2023-05-15T11:25:57.701Z,19.66
2023-05-15T11:28:30.801Z,21.58
2023-05-15T11:31:07.017Z,18.99
2023-05-15T11:33:40.633Z,21.96
2023-05-15T11:36:15.890Z,22.66
2023-05-15T11:38:50.946Z,20.78
2023-05-15T11:41:24.978Z,21.49
2023-05-15T11:43:57.205Z,21.71
2023-05-15T11:46:30.530Z,24.19
2023-05-15T11:49:02.481Z,25.52
2023-05-15T11:51:35.470Z,22.06
2023-05-15T11:54:08.148Z,20.51
2023-05-15T11:56:47.284Z,22.19
2023-05-15T12:02:07.013Z,21.81
2023-05-15T12:04:38.562Z,20.66
2023-05-15T12:07:12.132Z,19.93
2023-05-15T12:09:44.144Z,22.33
2023-05-15T12:12:15.788Z,23.37
2023-05-15T12:14:47.344Z,25.66
2023-05-15T12:17:18.917Z,23.78
2023-05-15T12:19:52.178Z,22.83
2023-05-15T12:22:23.801Z,24.11
2023-05-15T12:24:58.979Z,21.17
2023-05-15T12:27:30.729Z,21.33
2023-05-15T12:30:06.163Z,18.75
2023-05-15T12:32:38.927Z,20.79
2023-05-15T12:35:12.125Z,22.28
2023-05-15T12:37:43.720Z,20.97
2023-05-15T12:40:15.512Z,19.68
2023-05-15T12:42:54.204Z,22.11
2023-05-15T12:45:33.060Z,25.52
2023-05-15T12:48:05.865Z,24.84
2023-05-15T12:50:37.631Z,24.26
2023-05-15T12:53:21.629Z,22.93
2023-05-15T12:55:53.202Z,22.55
2023-05-15T12:58:24.870Z,24.19
2023-05-15T13:00:57.310Z,25.49
2023-05-15T13:03:29.658Z,25.78
2023-05-15T13:06:07.185Z,22.35
2023-05-15T13:08:42.388Z,23.95
2023-05-15T13:11:14.679Z,21.16
2023-05-15T13:13:49.387Z,20.32
2023-05-15T13:16:26.753Z,22.03
2023-05-15T13:18:58.943Z,22.45
2023-05-15T13:21:31.255Z,23.22
2023-05-15T13:24:02.889Z,23.57
2023-05-15T13:26:41.612Z,22.51
2023-05-15T13:29:13.168Z,22.42
2023-05-15T13:31:44.850Z,21.73
2023-05-15T13:34:16.416Z,20.52
2023-05-15T13:36:48.067Z,21.19
2023-05-15T13:39:19.642Z,24.27
2023-05-15T13:41:53.287Z,22.72
2023-05-15T13:44:24.861Z,22.52
2023-05-15T13:46:56.584Z,25.54
2023-05-15T13:49:28.379Z,26.10
2023-05-15T13:52:00.149Z,26.67
2023-05-15T13:54:32.171Z,27.12
2023-05-15T13:57:04.101Z,25.51
2023-05-15T13:59:35.810Z,23.08
2023-05-15T14:02:07.370Z,20.89
2023-05-15T14:04:39.000Z,19.16
2023-05-15T14:07:13.308Z,19.03
2023-05-15T14:09:44.908Z,18.50
2023-05-15T14:12:16.513Z,18.62
2023-05-15T14:14:48.569Z,17.78
2023-05-15T14:17:22.256Z,17.32
2023-05-15T14:19:53.989Z,15.38
2023-05-15T14:22:25.636Z,14.23
2023-05-15T14:24:57.253Z,14.18
2023-05-15T14:27:28.956Z,14.24
2023-05-15T14:30:01.072Z,14.15
2023-05-15T14:32:32.743Z,14.54
2023-05-15T14:35:04.963Z,14.55
2023-05-15T14:37:37.633Z,14.52
2023-05-15T14:40:10.235Z,14.08
2023-05-15T14:42:41.788Z,14.61
2023-05-15T14:45:13.370Z,14.95
2023-05-15T14:47:45.017Z,14.76
2023-05-15T14:50:16.641Z,14.73
2023-05-15T14:52:48.319Z,15.44
2023-05-15T14:55:23.280Z,15.49
2023-05-15T14:57:54.861Z,15.69
2023-05-15T15:00:27.013Z,15.54
2023-05-15T15:02:59.486Z,16.01
2023-05-15T15:05:31.445Z,16.46
2023-05-15T15:08:08.862Z,16.35
2023-05-15T15:10:41.113Z,16.30
2023-05-15T15:13:14.014Z,16.88
2023-05-15T15:15:46.652Z,17.22
2023-05-15T15:18:18.464Z,17.44
2023-05-15T15:20:50.103Z,17.50
2023-05-15T15:23:21.715Z,16.87
2023-05-15T15:25:53.379Z,17.35
2023-05-15T15:28:26.287Z,17.45
2023-05-15T15:30:57.824Z,17.59
2023-05-15T15:33:29.439Z,18.22
2023-05-15T15:36:01.091Z,18.40
2023-05-15T15:38:32.737Z,18.74
2023-05-15T15:41:05.662Z,18.60
2023-05-15T15:43:37.237Z,19.13
2023-05-15T15:46:08.962Z,19.71
2023-05-15T15:48:40.730Z,20.03
2023-05-15T15:51:13.920Z,19.64
2023-05-15T15:53:45.517Z,19.73
2023-05-15T15:56:20.063Z,19.91
2023-05-15T15:58:51.802Z,19.99
2023-05-15T16:01:28.273Z,21.02
2023-05-15T16:04:00.201Z,20.69
2023-05-15T16:06:33.713Z,20.87
2023-05-15T16:09:05.512Z,21.10
2023-05-15T16:11:37.128Z,21.04
2023-05-15T16:14:08.856Z,20.58
2023-05-15T16:16:40.696Z,20.58
2023-05-15T16:19:13.787Z,20.19
2023-05-15T16:21:45.490Z,19.80
2023-05-15T16:24:20.226Z,18.90
2023-05-15T16:26:55.419Z,18.08
2023-05-15T16:29:26.986Z,17.89
2023-05-15T16:31:58.888Z,17.58
2023-05-15T16:34:30.592Z,17.89
2023-05-15T16:37:02.219Z,18.01
2023-05-15T16:39:39.640Z,17.39
2023-05-15T16:42:14.238Z,17.59
2023-05-15T16:44:45.806Z,17.28
2023-05-15T16:47:17.602Z,17.39
2023-05-15T16:49:50.271Z,17.54
2023-05-15T16:52:22.334Z,17.19
2023-05-15T16:54:53.963Z,17.25
2023-05-15T16:57:26.159Z,17.27
2023-05-15T16:59:57.771Z,17.03
2023-05-15T17:02:29.445Z,17.23
2023-05-15T17:05:03.226Z,17.12
2023-05-15T17:07:36.466Z,16.93
2023-05-15T17:10:09.677Z,16.99
2023-05-15T17:12:41.330Z,16.70
2023-05-15T17:15:15.905Z,16.61
2023-05-15T17:17:47.438Z,16.52
2023-05-15T17:20:19.146Z,16.48
2023-05-15T17:22:51.238Z,16.43
2023-05-15T17:25:23.091Z,16.56
2023-05-15T17:27:55.143Z,16.49
2023-05-15T17:30:27.020Z,16.48
2023-05-15T17:33:00.358Z,16.53
2023-05-15T17:35:33.183Z,16.57
2023-05-15T17:38:05.096Z,16.65
2023-05-15T17:40:36.671Z,16.62
2023-05-15T17:43:10.269Z,16.53
2023-05-15T17:45:41.974Z,16.48
2023-05-15T17:48:13.562Z,16.39
2023-05-15T17:50:45.166Z,16.25
2023-05-15T17:53:16.928Z,15.93
2023-05-15T17:55:48.764Z,15.88
2023-05-15T17:58:21.289Z,15.85
2023-05-15T18:00:53.044Z,15.88
2023-05-15T18:03:24.796Z,15.92
2023-05-15T18:05:59.898Z,15.93
2023-05-15T18:08:31.548Z,15.91
2023-05-15T18:11:11.101Z,15.95
2023-05-15T18:13:49.475Z,15.89
2023-05-15T18:16:21.336Z,15.89
2023-05-15T18:18:53.079Z,15.62
2023-05-15T18:21:25.563Z,15.69
2023-05-15T18:23:57.205Z,15.78
2023-05-15T18:26:31.160Z,15.78
2023-05-15T18:29:03.403Z,15.89
2023-05-15T18:31:35.949Z,15.96
2023-05-15T18:34:07.707Z,15.88
2023-05-15T18:36:39.367Z,15.81
2023-05-15T18:39:11.123Z,15.70
2023-05-15T18:41:42.828Z,15.66
2023-05-15T18:44:14.414Z,15.35
2023-05-15T18:46:46.430Z,15.25
2023-05-15T18:49:18.203Z,15.27
2023-05-15T18:51:49.776Z,15.31
2023-05-15T18:54:21.467Z,15.25
2023-05-15T18:56:53.235Z,15.24
2023-05-15T18:59:24.953Z,15.63
2023-05-15T19:01:56.718Z,15.89
2023-05-15T19:04:28.331Z,15.95
2023-05-15T19:06:59.918Z,16.02
2023-05-15T19:09:31.718Z,15.95
2023-05-15T19:12:03.382Z,16.08
2023-05-15T19:14:35.044Z,16.06
2023-05-15T19:17:07.459Z,15.85
2023-05-15T19:19:39.212Z,15.85
2023-05-15T19:22:10.916Z,15.99
2023-05-15T19:24:42.707Z,15.69
2023-05-15T19:27:16.547Z,16.07
2023-05-15T19:29:48.172Z,16.20
2023-05-15T19:32:20.151Z,16.14
2023-05-15T19:34:56.892Z,15.64
2023-05-15T19:37:29.105Z,15.41
2023-05-15T19:40:00.755Z,15.48
2023-05-15T19:42:32.605Z,15.35
2023-05-15T19:45:04.834Z,15.27
2023-05-15T19:47:45.351Z,15.32
2023-05-15T19:50:18.308Z,15.35
2023-05-15T19:52:49.901Z,15.52
2023-05-15T19:55:21.611Z,15.51
2023-05-15T19:57:58.453Z,15.23
2023-05-15T20:00:30.204Z,15.51
2023-05-15T20:03:04.988Z,15.74
2023-05-15T20:05:42.594Z,15.80
2023-05-15T20:08:15.310Z,15.80
2023-05-15T20:10:52.269Z,15.85
2023-05-15T20:13:24.040Z,15.70
2023-05-15T20:15:58.181Z,15.72
2023-05-15T20:18:32.181Z,15.67
2023-05-15T20:21:06.651Z,15.45
2023-05-15T20:23:38.817Z,15.39
2023-05-15T20:26:11.737Z,15.50
2023-05-15T20:28:45.158Z,15.57
2023-05-15T20:31:19.905Z,15.69
2023-05-15T20:33:51.549Z,15.74
2023-05-15T20:36:25.537Z,15.71
2023-05-15T20:38:57.201Z,15.79
2023-05-15T20:41:29.361Z,15.84
2023-05-15T20:44:01.359Z,15.84
2023-05-15T20:46:33.272Z,15.70
2023-05-15T20:49:05.057Z,15.68
2023-05-15T20:51:36.667Z,15.79
2023-05-15T20:54:08.274Z,15.67
2023-05-15T20:56:43.102Z,15.54
2023-05-15T20:59:14.804Z,15.73
2023-05-15T21:01:49.225Z,15.64
2023-05-15T21:04:20.837Z,15.71
2023-05-15T21:06:52.579Z,15.67
2023-05-15T21:09:27.258Z,15.64
2023-05-15T21:11:59.844Z,15.63
2023-05-15T21:14:31.519Z,15.54
2023-05-15T21:17:03.135Z,15.48
2023-05-15T21:19:34.772Z,15.40
2023-05-15T21:22:06.941Z,15.41
2023-05-15T21:24:38.657Z,15.49
2023-05-15T21:27:10.709Z,15.45
2023-05-15T21:29:42.410Z,15.52
2023-05-15T21:32:16.392Z,15.57
2023-05-15T21:34:48.024Z,15.52
2023-05-15T21:37:19.694Z,15.58
2023-05-15T21:39:51.273Z,15.64
2023-05-15T21:42:22.836Z,15.46
2023-05-15T21:44:57.924Z,15.43
2023-05-15T21:47:29.458Z,15.44
2023-05-15T21:50:01.302Z,15.34
2023-05-15T21:52:32.967Z,15.42
2023-05-15T21:55:05.128Z,15.56
2023-05-15T21:57:36.699Z,15.57
2023-05-15T22:00:09.231Z,15.63
2023-05-15T22:02:40.924Z,15.59
2023-05-15T22:05:12.938Z,15.48
2023-05-15T22:07:44.635Z,15.50
2023-05-15T22:10:16.684Z,15.46
2023-05-15T22:12:48.352Z,15.34
2023-05-15T22:15:20.075Z,15.27
2023-05-15T22:17:51.794Z,15.32
2023-05-15T22:20:23.686Z,15.25
2023-05-15T22:22:55.633Z,15.25
2023-05-15T22:25:27.278Z,15.34
2023-05-15T22:27:58.903Z,15.31
2023-05-15T22:30:30.714Z,15.24
2023-05-15T22:33:02.442Z,15.26
2023-05-15T22:35:34.203Z,15.12
2023-05-15T22:38:07.305Z,15.12
2023-05-15T22:40:38.944Z,15.01
2023-05-15T22:43:10.636Z,15.03
2023-05-15T22:45:42.272Z,14.93
2023-05-15T22:48:15.431Z,15.03
2023-05-15T22:50:47.621Z,15.06
2023-05-15T22:53:21.515Z,15.08
2023-05-15T22:55:53.101Z,15.02
2023-05-15T22:58:24.786Z,15.20
2023-05-15T23:00:56.575Z,15.07
2023-05-15T23:03:31.509Z,15.01
2023-05-15T23:06:03.217Z,15.01
2023-05-15T23:08:34.768Z,15.20
2023-05-15T23:11:06.360Z,15.24
2023-05-15T23:13:37.936Z,15.26
2023-05-15T23:16:12.487Z,15.21
2023-05-15T23:18:44.295Z,15.23
2023-05-15T23:21:15.928Z,15.23
2023-05-15T23:23:48.330Z,15.19
2023-05-15T23:26:20.088Z,15.23
2023-05-15T23:28:51.869Z,15.08
2023-05-15T23:31:23.594Z,15.04
2023-05-15T23:33:55.323Z,15.08
2023-05-15T23:36:27.103Z,15.09
2023-05-15T23:38:58.919Z,15.13
2023-05-15T23:41:30.681Z,15.15
2023-05-15T23:44:05.068Z,15.16
2023-05-15T23:46:38.353Z,15.10
2023-05-15T23:49:10.053Z,14.95
2023-05-15T23:51:41.698Z,14.94
2023-05-15T23:54:13.234Z,15.02
2023-05-15T23:56:45.377Z,15.02
2023-05-15T23:59:16.955Z,14.93
